Hiram, Kentucky
Current Conditions -  °F | °C
As of 3:35 AM on Wednesday 26 Nov 2014 (Local Time) from KI35 Reporting Station
Overcast Overcast  
Wind Chill: 41°   Ceiling: 11000
Heat Index: 41°   Visibility: 10mi
Dew Point: 30°   Wind: 3mph
Humidity: 65%   Direction: 10°N
Pressure: 30.01"   Gusts: NA
Location:  36.9548°N, 82.9776°W
Report Text: KI35 260835Z AUTO 01003KT 10SM OVC110 05/M01 A3001 RMK AO1
Loading
Personal Weather Stations






























Interactive Weather Map New forecast layout! Learn more

10-Day Weather Forecast

Advertisements
Track Severe Weather on mobile